SMRA80 UAOL 210900
AAXX 21091
80022 21460 70104 10254 20235 30093 40095 70521 83126 333 56190 59002 60007 83815 83457=
80028 21460 30104 10248 20234 30063 40098 70521 83600 333 564// 59003 60007 83712=
80112 21240 80000 10139 20136 37898 71022 8565/ 333 5609/ 59002 60007 85706 84358=
80222 22464 80701 10120 20110 37527 8257/ 333 56770 58000 60007 82617 87358=
80259 22560 11202 10189 20189 39041 81530 333 56490 59020 60007 81630=
80398 22970 40000 10243 20243 30008 40102 84030 333 56090 59008 60007 84360=
81002 41961 69901 10214 20210 40125 70522 80002 333 30/// 58006 86080=
85406 44982 30806 10175 20105 30074 40118 57015 70200 80001 333 83070=
85418 44970 00000 10181 20117 30065 40121 55009 70000 80000=
85432 44960 00408 10094 21010 37721 48421 56013 70200 80000=
85442 44960 01104 10158 20114 39964 40128 56016 70200 80000=
85469 14570 31303 10195 20177 30125 40176 58009 60001 70200 81101 333 563/3 81825 83073=
85488 44460 31604 10112 20098 39985 40143 58007 70310 83500 333 566// 83610=
85574 44960 0//// 10124 20031 39602 40159 54000 70200 80000=
85577 44960 00000 10095 20037 39555 40175 55004 70000 80000=
85585 46/// /2708 10167 20095 30180 40216=
85629 46/// /1604 10106 20045 39894 40158=
85672 43/// /2205 10084 20033 39984 40168=
85682 44960 01603 10083 20071 30168 40177 56004 70000 80000=
85743 43/// /0000 10078 20073 30081 40188=
85766 46/// /1101 10059 20059 30154 40177=
85799 44660 80000 10080 20068 30071 40170 57006 78022 888// 333 565// 82843 88656=
85864 46/// /3603 10085 20058 39783 40147=
85934 44560 73308 10078 20053 30061 40112 56010 70222 83530 333 5666/ 83630 87360=
85968 46/// /2101 10056 20055 30065 40098=
86128 32470 82108 10190 20175 30024 40138 52021 886// 333 88719=
86170 32970 11806 10190 20159 30050 40155 52026 80001 333 81270=
86185 32970 11802 10184 20163 30019 40111 52001 80001 333 81070=
86221 32970 01804 10180 20163 30016 40153 52006=
86246 32870 21812 10167 20155 39857 40149 53007 82050 333 82358=
86251 32970 01804 10174 20151 39999 40171 53022=
86586 42562 41810 10140 20064 30169 40210 54001 84800 555 10100 20230 30219=
86595 41560 22212 10151 20077 30189 40209 54/// 700// 82100 555 10111 20200 30234=
87148 42970 41804 10158 20141 30054 40164 56009 84030 333 56070 84360=
87904 42980 72503 10100 20037 39885 40129 57011 84076 333 56066 84359 84270=
88900 46/// /0504 10034 20025 39890 49892 57035=
88963 41460 72015 11072 21106 39906 49938 52011 72272 82770 333 56550 82710 87360 90113 92416 92732 92801 94073 95003=
88968 41220 80707 10009 21021 39818 49834 53001 77172 8772/ 333 56759 86706 86615 88535 90092 90290 90567 90665 92414 92734 92801 95080 96010=
89002 42898 21607 11258 21303 39845 49906 57009 82070=
89004 41989 01325 11230 21278 38850 49927 51007 73633 333 11227 21248 91029 555 90980=
89014 46/// /0307 11171 21268 39289 49926 57007 90900 555 743//=
89022 46/// /0713 11120 21134 39862 49888 57010=
89257 46/// /2210 11332 21367 39897 49976 57005 90900=
89266 46/// /1710 11195 21214 39831 49979 57001 90900=
89272 46/// /1108 11145 21159 38061 49718 57009 90900=
89611 41480 50909 11091 21135 39753 49806 51019 70111 816/6=
89614 46/// ///// 38941 4//// 5//// 90930=
89648 46/// /2412 11542 29045 37118 4//// 5////=
89659 46/// /2912 11386 29062 37603 4//// 5////=
89661 46/// ///// 11156 29090 39183 4//// 5////=
89662 46/// /2803 11137 29037 39786 4//// 5////=
89817 46/// /3007 11136 29071 39753 4//// 5//// 90930 333 90700 91108=
89828 46/// ///// 11588 36437 4//// 5//// 90910=



SMUS80 KWBC 210900
AAXX 21094
81405 24957 /2501 10229 20219 30110 40119 700// 333 60007 58008 555 60005=
82599 42570 23102 10251 20236 30042 40102 82100 333 58002=
82824 41558 41409 10233 20212 30013 40114 79596 85200 333 58020=
82899 42570 23306 10255 20240 30087 40099 81200 333 58005=
83248 41470 82702 10290 20263 30056 40078 7151/ 8621/ 333 59006=
83746 41358 83103 10241 20233 30094 40104 53003 71022 885//=
84377 31660 81201 10240 20232 39993 40137 70222 8352/ 333 56000 59011 83640 86460=
84401 31860 59903 10226 20177 30067 40111 70222 85/3/ 333 56090 58004 85358=
84452 34960 31812 10201 20178 30075 40110 70202 83010 333 56020 58002 83465=
84472 31550 80000 10125 20120 37416 7466/ 887// 333 56900 58005 83727 88733=
84501 31960 51408 10195 20178 30085 40113 70211 8503/ 333 56020 58001 85365=
84515 31460 80000 10233 20231 39927 40106 70244 8352/ 333 5699/ 58005 83620 84458=
84628 34960 01704 10199 20176 30096 40113 70210 333 58005=
84686 31660 80803 10097 20068 36897 70222 8351/ 333 56990 58022 83646 86460=
84691 31960 52009 10199 20167 30098 40110 70300 8503/ 333 56099 58001 85368=
84752 32960 03204 10138 20005 37520 70200 333 59001=
84782 31965 33303 10169 20112 39633 40125 70222 80001 333 56009 59004 83080=
85043 42465 60000 10234 20230 39953 40113 52025 84930 333 56550 58015 83615 81920 86358=
85154 42270 71306 10222 20210 39945 40123 54000 83770 333 56330 58036 83705 87358=
85201 41265 73207 10053 20032 36306 56005 71322 85963 333 56600 58006 81605 83613 81917 85357=
85223 41559 70103 10133 20124 37516 47144 56007 70422 82531 333 56000 58013 82627 84358 87070=
85244 42565 71712 10187 20166 39719 40158 55010 84576 333 56499 58046 84620 86357 87070 91023=
85364 41456 82603 10131 20115 38176 48187 52006 71522 8772/ 333 56009 58015 84710 85620 88457=
86086 32470 81806 10220 20206 30044 40135 52007 885// 333 88715=
86097 31250 81716 10184 20179 39495 40149 53006 71022 886// 333 88704=
86134 32570 81810 10208 20179 30059 40147 54000 885// 333 88625=
86218 32870 12005 10176 20164 30069 40168 53003 81030 333 81358=
86233 32970 01804 10182 20163 39971 40164 51006=
86234 32970 21804 10176 20166 39969 40157 56001 80001 333 82070=
86255 32770 11806 10162 20141 30115 40185 53004 81030 333 81370=
86268 32770 51808 10160 20153 30001 40168 54000 85050 333 85356=
86285 32970 01802 10152 20148 39844 40156 51016=
86297 32970 01805 10160 20144 39943 40177 54000=
86330 41970 11304 10102 20079 30067 40214 53/// 700// 80001 555 10090 20210 30117=
86350 42970 11305 10100 20073 39930 40221 58002 80005 555 10086 20220 39980=
86360 41960 01403 10083 20077 30170 40222 55/// 700// 555 10080 20210 30219=
86490 42660 50000 10100 20091 30206 40228 55003 83580 555 10095 20198 30252=
86565 42465 20000 10082 20066 30174 40198 53003 82400 555 10074 20228 30224=
86580 42560 61806 10150 20089 30179 40219 5/001 85460 555 10116 20214 30226=
86585 42560 41702 10155 20071 30192 40213 53003 84500 555 10110 20220 30240=
87007 42580 50505 10084 20054 36718 47113 55004 83644 333 56000 57300 83720=
87016 41220 81805 10145 20138 39782 40202 56012 75152 887// 333 56499 84706 88715=
87022 31430 82310 10140 20136 39692 40214 75355 887// 333 85710 88720=
87046 41120 82305 10115 20106 39178 48545 56015 75355 886// 333 56599 85703 88710 96010=
87047 41256 83205 10103 20095 38841 48548 57013 75155 887// 333 56199 86706 88710 90091 90567=
87078 42970 31402 10178 20125 30032 40184 5//// 83030 333 56040 83360=
87097 42970 01804 10174 20164 39830 40143 53003=
87121 41659 83403 10137 20121 39694 40216 56020 71022 8802/ 333 56049 88540=
87129 42560 82302 10148 20134 39981 40217 55015 8457/ 333 56189 84630 86360=
87155 42965 21605 10150 20125 30134 40196 53001 80005 333 56004 82270=
87162 42970 61808 10183 20154 30108 40178 53004 86070 333 56070 86360=
87166 42960 11609 10154 20113 30121 40194 53003 81030 333 56060 81360=
87178 42970 01408 10164 20141 30030 40177 53008=
87217 42770 80000 10149 20130 39687 40182 56012 885// 333 56099 88650=
87222 42670 80511 10155 20097 39654 40181 57020 886// 333 88740=
87244 42567 70000 10130 20112 39834 40237 57009 86530 333 56000 86630=
87257 41560 71405 10140 20114 30094 40200 57012 72162 83770 333 56460 83720 87360=
87270 42965 61406 10156 20112 30152 40214 56005 86070 333 56060 86360=
87289 42960 11809 10123 20087 30128 40211 52001 81030 333 56060 81360=
87311 42965 13405 10100 20031 39490 40178 57015 80005 333 56000 81270=
87320 42670 70000 10138 20111 39672 40208 5//// 87500 333 56000 87640=
87328 42680 80903 10138 20116 39556 40213 57007 885// 333 56599 88640 95090=
87344 42560 83203 10127 20118 39646 40226 57013 8267/ 333 56009 82729 87360=
87349 42960 40000 10098 20084 39833 40235 57013 81085 333 56066 81360 84270=
87371 42962 01402 10108 20098 30208 40230 55007=
87374 42965 00000 10095 20078 30140 40229 56007=
87393 42970 01604 10120 20088 30129 40193 56001=
87395 42965 01803 10110 20077 30180 40226 55004=
87416 42965 00000 10090 20054 39397 40148 56013=
87418 42965 01803 10096 20034 39369 40177 57015=
87436 42970 70208 10128 20079 39369 40184 57017 83076 333 56066 83360 87270=
87448 42560 43602 10062 20039 39636 40211 57015 81574 333 56622 81625=
87453 42965 50207 10085 20071 39720 40218 57016 82071 333 56056 82360 84070=
87467 42970 00906 10082 20058 30073 40210 57008=
87480 41962 01805 10069 20056 30200 40230 56008 71144 333 90561=
87497 41958 01402 10096 20088 30189 40215 57003 71000=
87506 42670 62004 10055 20001 38600 48522 56015 82580 333 56760 82635 85359 95090=
87509 42970 12703 10064 20024 39322 40186 57021 81030 333 56050 81360=
87532 42970 10509 10099 20023 30050 40223 56009 80002 333 56006 81070=
87534 42960 10000 10055 20039 30064 40229 57011 80004 333 56006 81070=
87548 42960 01404 10080 20072 30128 40226 57008=
87563 42965 01804 10048 20041 30186 40230 51003=
87576 42960 00000 10070 20061 30210 40234 56001=
87582 42960 01802 10135 20070 30228 40235 55001=
87585 42960 00903 10115 20076 30205 40235 56004=
87593 42960 01803 10072 20065 30214 40242 56001=
87623 42980 30205 10062 20044 39992 40222 57013 81072 333 56066 81360 83070=
87641 41959 00000 10036 20036 30062 40243 56005 71000=
87645 42965 02005 10041 20039 30028 40242 57007=
87648 42960 01803 10055 20050 30202 40213 57004=
87688 41958 01802 10052 20033 30076 40216 5//// 71000=
87692 42560 72703 10110 20082 30209 40235 58003 87500 333 56500 87625=
87715 42965 70508 10146 20046 39844 40160 57011 82076 333 56099 82360 87270=
87750 42965 00205 10050 20036 30132 40233 57007=
87765 42960 41804 10037 21027 39192 48487 55005 80006 333 56005 84275 96120=
87774 42682 60902 10116 21011 39138 48496 57019 82515 333 56099 82636 83460=
87791 42980 13407 10103 20065 30204 40211 57012 80001 333 56006 81070=
87803 42980 63601 10088 20010 39222 40133 55008 85076 333 56060 85360 83270=
87828 42980 23212 10135 20052 30110 40161 57012 80002 333 56006 82070=
87860 42980 50000 10082 20041 30068 40124 57019 80004 333 56006 85070=
87896 42980 13608 10082 20069 30036 40132 5/// 80005 333 56006 81270=
87909 42980 30000 10060 20036 30058 40134 57012 81036 333 56000 81360=
87925 42980 72902 10094 20064 30100 40123 57015 83570 333 56660 83640 85360=
87934 42980 73209 10070 20059 30072 40099 57009 83076 333 56076 83360 87270=
87938 41205 80503 10069 20067 30008 40078 57013 74642 886// 333 88705 95090=
89034 41570 80000 11128 21143 39565 49889 57009 72272 887// 333 56099 88720 90120 92800 96470=
89053 41357 82916 10002 21026 39921 49935 51012 72272 886// 333 56799 83707 88710 90115 90215 90283 92426 92739 92801 94075 95035 96010 97522=
89055 41309 72325 11110 21123 39680 49932 52011 74274 83776 333 56557 83708 85360 87270 90568 90668 92739 92816 92921 95190 96036=
89056 44260 82612 10003 21003 39886 49933 51016 70222 885// 333 565// 84605 88621=
89057 44460 82410 10008 21005 49928 52012 70272 885// 333 564// 88610=
89059 44524 80901 11030 21047 39914 49929 52014 72241 884// 333 562// 88626=
89061 17566 83609 10009 20009 39860 49860 51012 60021 70077 333 555 92109=
89062 46/// /0202 11006 21059 39787 49828 57005=
89065 46/// /9902 11110 21142 39760 49840 57007 90900=
89066 42970 41123 11015 21045 39822 49832 56001 80001 333 56007 84070 92427 92730 92841 95000=
89314 46/// ///// 11225 38261 4//// 5//// 90930=
89504 46/// /1501 11158 21275 38372 49890 57013=
89532 42/70 80743 11025 21078 39709 49736 58038 885//=
89564 41680 80811 11090 21193 39941 49962 56007 6///0 71422 8152/=
89571 41580 51505 11117 21209 39850 49880 51010 6///1 70311 85500=
89666 46/// /3006 11150 29001 39701 4//// 5////=
89769 46/// /3009 11149 39824 49879 5//// 90900=
89811 46/// /1104 11140 29082 38153 4//// 5//// 90930 333 90700 91105=
89815 46/// /1605 11077 29066 39718 4//// 5//// 90930 333 90700 91105=
89866 46/// ///// 11143 39753 4//// 5//// 90930=
89879 46/// ///// 11070 39709 4//// 5//// 90940=